createdAt,value
2019-04-29T00:00:05.286Z,981.77
2019-04-29T00:01:05.389Z,981.97
2019-04-29T00:02:07.175Z,981.94
2019-04-29T00:03:10.247Z,981.86
2019-04-29T00:04:04.642Z,981.77
2019-04-29T00:05:05.115Z,981.72
2019-04-29T00:06:05.392Z,981.89
2019-04-29T00:07:05.401Z,981.83
2019-04-29T00:08:05.366Z,981.97
2019-04-29T00:09:07.197Z,982.00
2019-04-29T00:10:05.021Z,981.92
2019-04-29T00:11:05.234Z,981.80
2019-04-29T00:12:04.678Z,981.89
2019-04-29T00:13:04.888Z,981.86
2019-04-29T00:14:04.887Z,981.89
2019-04-29T00:15:05.291Z,981.98
2019-04-29T00:16:05.487Z,981.81
2019-04-29T00:17:05.121Z,982.03
2019-04-29T00:18:07.208Z,981.89
2019-04-29T00:19:04.762Z,981.95
2019-04-29T00:20:05.114Z,981.95
2019-04-29T00:21:04.621Z,981.90
2019-04-29T00:22:05.415Z,981.81
2019-04-29T00:23:05.256Z,981.87
2019-04-29T00:24:04.754Z,981.90
2019-04-29T00:25:04.755Z,981.84
2019-04-29T00:26:05.015Z,981.82
2019-04-29T00:27:05.223Z,981.87
2019-04-29T00:28:05.330Z,981.85
2019-04-29T00:29:04.577Z,981.96
2019-04-29T00:30:04.591Z,981.93
2019-04-29T00:31:04.830Z,981.93
2019-04-29T00:32:05.207Z,981.93
2019-04-29T00:33:05.575Z,981.82
2019-04-29T00:34:05.299Z,981.99
2019-04-29T00:35:05.443Z,981.82
2019-04-29T00:36:04.620Z,981.99
2019-04-29T00:37:04.584Z,981.76
2019-04-29T00:38:05.244Z,981.82
2019-04-29T00:39:04.763Z,981.76
2019-04-29T00:40:05.247Z,981.90
2019-04-29T00:41:05.334Z,981.82
2019-04-29T00:42:04.848Z,981.71
2019-04-29T00:43:10.207Z,981.88
2019-04-29T00:44:04.728Z,981.85
2019-04-29T00:45:05.043Z,981.71
2019-04-29T00:46:05.236Z,981.79
2019-04-29T00:47:05.442Z,981.79
2019-04-29T00:48:04.585Z,981.79
2019-04-29T00:49:08.255Z,981.82
2019-04-29T00:50:05.190Z,981.74
2019-04-29T00:51:05.361Z,981.77
2019-04-29T00:52:05.383Z,981.80
2019-04-29T00:53:05.114Z,981.77
2019-04-29T00:54:04.818Z,981.71
2019-04-29T00:55:05.277Z,981.85
2019-04-29T00:56:05.325Z,981.85
2019-04-29T00:57:05.388Z,981.82
2019-04-29T00:58:04.937Z,981.82
2019-04-29T00:59:05.085Z,981.85
2019-04-29T01:00:05.602Z,981.80
2019-04-29T01:01:04.612Z,981.74
2019-04-29T01:02:05.495Z,981.74
2019-04-29T01:03:10.253Z,981.77
2019-04-29T01:04:04.762Z,981.80
2019-04-29T01:05:04.902Z,981.94
2019-04-29T01:06:05.249Z,981.71
2019-04-29T01:07:04.587Z,981.88
2019-04-29T01:08:05.173Z,981.88
2019-04-29T01:09:05.524Z,982.05
2019-04-29T01:10:04.695Z,981.85
2019-04-29T01:11:04.746Z,981.97
2019-04-29T01:12:05.304Z,981.91
2019-04-29T01:13:04.776Z,981.74
2019-04-29T01:14:04.707Z,981.97
2019-04-29T01:15:04.836Z,981.88
2019-04-29T01:16:05.038Z,981.94
2019-04-29T01:17:04.923Z,981.94
2019-04-29T01:18:04.891Z,981.85
2019-04-29T01:19:05.102Z,981.97
2019-04-29T01:20:05.227Z,981.83
2019-04-29T01:21:04.664Z,981.77
2019-04-29T01:22:04.751Z,981.74
2019-04-29T01:23:05.286Z,981.80
2019-04-29T01:24:04.896Z,981.77
2019-04-29T01:25:05.337Z,981.80
2019-04-29T01:26:05.247Z,981.88
2019-04-29T01:27:05.472Z,981.74
2019-04-29T01:28:05.131Z,981.77
2019-04-29T01:29:05.165Z,981.71
2019-04-29T01:30:04.720Z,981.74
2019-04-29T01:31:04.820Z,981.77
2019-04-29T01:32:05.079Z,981.74
2019-04-29T01:33:05.182Z,981.69
2019-04-29T01:34:05.375Z,981.72
2019-04-29T01:35:06.444Z,981.63
2019-04-29T01:36:05.079Z,981.74
2019-04-29T01:37:05.640Z,981.88
2019-04-29T01:38:05.101Z,981.63
2019-04-29T01:39:05.452Z,981.69
2019-04-29T01:40:04.622Z,981.72
2019-04-29T01:41:04.983Z,981.66
2019-04-29T01:42:04.987Z,981.77
2019-04-29T01:43:10.100Z,981.58
2019-04-29T01:44:04.661Z,981.74
2019-04-29T01:45:04.996Z,981.77
2019-04-29T01:46:04.675Z,981.72
2019-04-29T01:47:04.732Z,981.74
2019-04-29T01:48:04.865Z,981.69
2019-04-29T01:49:05.199Z,981.80
2019-04-29T01:50:04.721Z,981.77
2019-04-29T01:51:04.879Z,981.77
2019-04-29T01:52:04.838Z,981.77
2019-04-29T01:53:05.261Z,981.66
2019-04-29T01:54:05.174Z,981.74
2019-04-29T01:55:05.216Z,981.63
2019-04-29T01:56:04.682Z,981.80
2019-04-29T01:57:04.822Z,981.80
2019-04-29T01:58:05.323Z,981.77
2019-04-29T01:59:04.763Z,981.74
2019-04-29T02:00:05.288Z,981.69
2019-04-29T02:01:05.492Z,981.86
2019-04-29T02:02:04.663Z,981.91
2019-04-29T02:03:04.722Z,981.77
2019-04-29T02:04:05.058Z,981.74
2019-04-29T02:05:05.394Z,981.63
2019-04-29T02:06:04.934Z,981.69
2019-04-29T02:07:05.022Z,981.60
2019-04-29T02:08:05.196Z,981.63
2019-04-29T02:09:05.330Z,981.74
2019-04-29T02:10:05.175Z,981.63
2019-04-29T02:11:04.714Z,981.74
2019-04-29T02:12:05.179Z,981.72
2019-04-29T02:13:05.410Z,981.69
2019-04-29T02:14:05.396Z,981.63
2019-04-29T02:15:04.887Z,981.63
2019-04-29T02:16:04.715Z,981.63
2019-04-29T02:17:04.871Z,981.63
2019-04-29T02:18:05.175Z,981.57
2019-04-29T02:19:05.375Z,981.60
2019-04-29T02:20:05.299Z,981.56
2019-04-29T02:21:05.539Z,981.57
2019-04-29T02:22:07.114Z,981.63
2019-04-29T02:23:05.248Z,981.60
2019-04-29T02:24:05.128Z,981.50
2019-04-29T02:25:04.666Z,981.57
2019-04-29T02:26:05.427Z,981.57
2019-04-29T02:27:06.189Z,981.53
2019-04-29T02:28:04.851Z,981.53
2019-04-29T02:29:05.334Z,981.53
2019-04-29T02:30:05.392Z,981.57
2019-04-29T02:31:05.493Z,981.50
2019-04-29T02:32:05.305Z,981.60
2019-04-29T02:33:05.104Z,981.47
2019-04-29T02:34:05.111Z,981.44
2019-04-29T02:35:05.352Z,981.53
2019-04-29T02:36:05.382Z,981.55
2019-04-29T02:37:04.737Z,981.50
2019-04-29T02:38:06.701Z,981.36
2019-04-29T02:39:05.371Z,981.47
2019-04-29T02:40:04.688Z,981.33
2019-04-29T02:41:04.826Z,981.41
2019-04-29T02:42:05.096Z,981.63
2019-04-29T02:43:05.169Z,981.53
2019-04-29T02:44:05.186Z,981.41
2019-04-29T02:45:04.878Z,981.47
2019-04-29T02:46:04.970Z,981.60
2019-04-29T02:47:05.416Z,981.57
2019-04-29T02:48:05.260Z,981.55
2019-04-29T02:49:05.254Z,981.44
2019-04-29T02:50:05.285Z,981.50
2019-04-29T02:51:05.247Z,981.60
2019-04-29T02:52:05.568Z,981.33
2019-04-29T02:53:04.991Z,981.41
2019-04-29T02:54:07.690Z,981.41
2019-04-29T02:55:05.307Z,981.44
2019-04-29T02:56:04.684Z,981.44
2019-04-29T02:57:10.309Z,981.50
2019-04-29T02:58:04.752Z,981.44
2019-04-29T02:59:04.961Z,981.39
2019-04-29T03:00:05.130Z,981.33
2019-04-29T03:01:04.972Z,981.39
2019-04-29T03:02:05.266Z,981.50
2019-04-29T03:03:05.432Z,981.44
2019-04-29T03:04:04.883Z,981.44
2019-04-29T03:05:04.708Z,981.55
2019-04-29T03:06:05.416Z,981.36
2019-04-29T03:07:05.032Z,981.41
2019-04-29T03:08:05.175Z,981.38
2019-04-29T03:09:05.099Z,981.44
2019-04-29T03:10:06.663Z,981.53
2019-04-29T03:11:04.748Z,981.55
2019-04-29T03:12:05.332Z,981.50
2019-04-29T03:13:05.664Z,981.47
2019-04-29T03:14:05.028Z,981.41
2019-04-29T03:15:04.712Z,981.44
2019-04-29T03:16:04.828Z,981.33
2019-04-29T03:17:05.633Z,981.39
2019-04-29T03:18:05.417Z,981.39
2019-04-29T03:19:04.732Z,981.42
2019-04-29T03:20:04.959Z,981.36
2019-04-29T03:21:05.518Z,981.33
2019-04-29T03:22:04.775Z,981.44
2019-04-29T03:23:04.741Z,981.25
2019-04-29T03:24:05.480Z,981.44
2019-04-29T03:25:05.004Z,981.22
2019-04-29T03:26:06.997Z,981.33
2019-04-29T03:27:04.746Z,981.22
2019-04-29T03:28:05.286Z,981.22
2019-04-29T03:29:05.028Z,981.30
2019-04-29T03:30:04.959Z,981.10
2019-04-29T03:31:05.513Z,981.22
2019-04-29T03:32:05.022Z,981.27
2019-04-29T03:33:05.271Z,981.27
2019-04-29T03:34:05.379Z,981.16
2019-04-29T03:35:04.875Z,981.28
2019-04-29T03:36:05.871Z,981.33
2019-04-29T03:37:05.049Z,981.22
2019-04-29T03:38:04.774Z,981.30
2019-04-29T03:39:05.493Z,981.30
2019-04-29T03:40:05.110Z,981.22
2019-04-29T03:41:04.855Z,981.25
2019-04-29T03:42:07.692Z,981.33
2019-04-29T03:43:10.575Z,981.50
2019-04-29T03:44:04.976Z,981.28
2019-04-29T03:45:05.118Z,981.39
2019-04-29T03:46:05.407Z,981.28
2019-04-29T03:47:04.820Z,981.39
2019-04-29T03:48:04.822Z,981.33
2019-04-29T03:49:05.448Z,981.36
2019-04-29T03:50:04.748Z,981.39
2019-04-29T03:51:05.280Z,981.22
2019-04-29T03:52:04.997Z,981.31
2019-04-29T03:53:04.773Z,981.28
2019-04-29T03:54:04.895Z,981.31
2019-04-29T03:55:05.069Z,981.08
2019-04-29T03:56:04.910Z,981.22
2019-04-29T03:57:04.827Z,981.31
2019-04-29T03:58:05.070Z,981.25
2019-04-29T03:59:05.547Z,981.33
2019-04-29T04:00:04.797Z,981.25
2019-04-29T04:01:04.884Z,981.28
2019-04-29T04:02:06.532Z,981.33
2019-04-29T04:03:05.533Z,981.33
2019-04-29T04:04:04.769Z,981.33
2019-04-29T04:05:10.935Z,981.45
2019-04-29T04:06:04.759Z,981.36
2019-04-29T04:07:05.632Z,981.42
2019-04-29T04:08:05.588Z,981.39
2019-04-29T04:09:06.740Z,981.53
2019-04-29T04:10:04.769Z,981.56
2019-04-29T04:11:04.891Z,981.33
2019-04-29T04:12:05.172Z,981.47
2019-04-29T04:13:04.873Z,981.42
2019-04-29T04:14:04.746Z,981.50
2019-04-29T04:15:05.357Z,981.50
2019-04-29T04:16:05.457Z,981.42
2019-04-29T04:17:04.900Z,981.50
2019-04-29T04:18:05.261Z,981.45
2019-04-29T04:19:05.407Z,981.39
2019-04-29T04:20:04.988Z,981.36
2019-04-29T04:21:05.191Z,981.50
2019-04-29T04:22:05.038Z,981.42
2019-04-29T04:23:04.923Z,981.47
2019-04-29T04:24:04.825Z,981.44
2019-04-29T04:25:06.180Z,981.47
2019-04-29T04:26:04.872Z,981.47
2019-04-29T04:27:05.408Z,981.66
2019-04-29T04:28:05.690Z,981.44
2019-04-29T04:29:05.100Z,981.44
2019-04-29T04:30:05.112Z,981.53
2019-04-29T04:31:07.441Z,981.41
2019-04-29T04:32:05.335Z,981.44
2019-04-29T04:33:05.113Z,981.41
2019-04-29T04:34:05.092Z,981.66
2019-04-29T04:35:05.326Z,981.60
2019-04-29T04:36:05.274Z,981.53
2019-04-29T04:37:05.959Z,981.50
2019-04-29T04:38:04.886Z,981.56
2019-04-29T04:39:05.376Z,981.57
2019-04-29T04:40:05.267Z,981.56
2019-04-29T04:41:05.076Z,981.63
2019-04-29T04:42:05.591Z,981.44
2019-04-29T04:43:05.106Z,981.55
2019-04-29T04:44:05.351Z,981.53
2019-04-29T04:45:05.796Z,981.63
2019-04-29T04:46:05.255Z,981.50
2019-04-29T04:47:04.890Z,981.60
2019-04-29T04:48:04.890Z,981.57
2019-04-29T04:49:05.062Z,981.55
2019-04-29T04:50:05.124Z,981.57
2019-04-29T04:51:04.970Z,981.47
2019-04-29T04:52:05.422Z,981.60
2019-04-29T04:53:05.080Z,981.49
2019-04-29T04:54:06.191Z,981.62
2019-04-29T04:55:05.490Z,981.62
2019-04-29T04:56:05.058Z,981.49
2019-04-29T04:57:04.840Z,981.52
2019-04-29T04:58:04.948Z,981.57
2019-04-29T04:59:04.822Z,981.52
2019-04-29T05:00:05.053Z,981.71
2019-04-29T05:01:05.152Z,981.43
2019-04-29T05:02:04.975Z,981.55
2019-04-29T05:03:10.072Z,981.49
2019-04-29T05:04:04.871Z,981.65
2019-04-29T05:05:04.930Z,981.59
2019-04-29T05:06:05.209Z,981.56
2019-04-29T05:07:04.880Z,981.49
2019-04-29T05:08:05.226Z,981.62
2019-04-29T05:09:05.507Z,981.65
2019-04-29T05:10:05.273Z,981.49
2019-04-29T05:11:05.154Z,981.46
2019-04-29T05:12:05.180Z,981.59
2019-04-29T05:13:05.058Z,981.64
2019-04-29T05:14:05.562Z,981.59
2019-04-29T05:15:05.022Z,981.43
2019-04-29T05:16:06.228Z,981.59
2019-04-29T05:17:05.133Z,981.46
2019-04-29T05:18:04.837Z,981.61
2019-04-29T05:19:05.455Z,981.48
2019-04-29T05:20:04.911Z,981.56
2019-04-29T05:21:04.881Z,981.56
2019-04-29T05:22:05.347Z,981.56
2019-04-29T05:23:04.861Z,981.42
2019-04-29T05:24:04.921Z,981.51
2019-04-29T05:25:05.471Z,981.42
2019-04-29T05:26:04.934Z,981.42
2019-04-29T05:27:04.865Z,981.37
2019-04-29T05:28:05.053Z,981.48
2019-04-29T05:29:05.372Z,981.42
2019-04-29T05:30:04.899Z,981.53
2019-04-29T05:31:05.334Z,981.28
2019-04-29T05:32:05.637Z,981.34
2019-04-29T05:33:04.871Z,981.34
2019-04-29T05:34:05.126Z,981.28
2019-04-29T05:35:05.651Z,981.28
2019-04-29T05:36:04.901Z,981.39
2019-04-29T05:37:05.111Z,981.31
2019-04-29T05:38:05.183Z,981.25
2019-04-29T05:39:05.231Z,981.36
2019-04-29T05:40:04.953Z,981.22
2019-04-29T05:41:05.121Z,981.33
2019-04-29T05:42:15.965Z,981.28
2019-04-29T05:43:05.534Z,981.25
2019-04-29T05:44:05.233Z,981.28
2019-04-29T05:45:04.956Z,981.25
2019-04-29T05:46:08.101Z,981.33
2019-04-29T05:47:04.876Z,981.36
2019-04-29T05:48:10.586Z,981.27
2019-04-29T05:49:08.968Z,981.44
2019-04-29T05:50:07.030Z,981.30
2019-04-29T05:51:04.892Z,981.24
2019-04-29T05:52:04.886Z,981.30
2019-04-29T05:53:05.277Z,981.36
2019-04-29T05:54:04.919Z,981.24
2019-04-29T05:55:04.881Z,981.38
2019-04-29T05:56:05.507Z,981.44
2019-04-29T05:57:04.964Z,981.44
2019-04-29T05:58:05.470Z,981.49
2019-04-29T05:59:12.731Z,981.47
2019-04-29T06:00:05.050Z,981.47
2019-04-29T06:01:04.864Z,981.55
2019-04-29T06:02:05.370Z,981.49
2019-04-29T06:03:05.371Z,981.35
2019-04-29T06:04:04.983Z,981.32
2019-04-29T06:05:05.143Z,981.46
2019-04-29T06:06:05.167Z,981.38
2019-04-29T06:07:05.626Z,981.52
2019-04-29T06:08:04.914Z,981.43
2019-04-29T06:09:05.436Z,981.43
2019-04-29T06:10:04.885Z,981.46
2019-04-29T06:11:05.290Z,981.40
2019-04-29T06:12:05.468Z,981.46
2019-04-29T06:13:04.977Z,981.31
2019-04-29T06:14:04.911Z,981.45
2019-04-29T06:15:05.087Z,981.34
2019-04-29T06:16:05.329Z,981.34
2019-04-29T06:17:08.081Z,981.31
2019-04-29T06:18:04.934Z,981.42
2019-04-29T06:19:06.406Z,981.36
2019-04-29T06:20:04.881Z,981.42
2019-04-29T06:21:09.836Z,981.39
2019-04-29T06:22:09.580Z,981.50
2019-04-29T06:23:05.047Z,981.47
2019-04-29T06:24:06.598Z,981.36
2019-04-29T06:25:04.942Z,981.47
2019-04-29T06:26:04.917Z,981.52
2019-04-29T06:27:05.012Z,981.46
2019-04-29T06:28:05.213Z,981.46
2019-04-29T06:29:06.502Z,981.52
2019-04-29T06:30:05.308Z,981.43
2019-04-29T06:31:05.028Z,981.40
2019-04-29T06:32:05.009Z,981.43
2019-04-29T06:33:05.419Z,981.37
2019-04-29T06:34:06.483Z,981.42
2019-04-29T06:35:05.771Z,981.39
2019-04-29T06:36:05.457Z,981.39
2019-04-29T06:37:05.512Z,981.50
2019-04-29T06:38:05.506Z,981.53
2019-04-29T06:39:05.505Z,981.55
2019-04-29T06:40:05.152Z,981.44
2019-04-29T06:41:09.642Z,981.46
2019-04-29T06:42:05.346Z,981.56
2019-04-29T06:43:04.940Z,981.40
2019-04-29T06:44:16.334Z,981.49
2019-04-29T06:45:05.454Z,981.37
2019-04-29T06:46:04.981Z,981.54
2019-04-29T06:47:08.777Z,981.45
2019-04-29T06:48:04.930Z,981.43
2019-04-29T06:49:11.073Z,981.34
2019-04-29T06:50:04.976Z,981.48
2019-04-29T06:51:04.951Z,981.45
2019-04-29T06:52:05.117Z,981.54
2019-04-29T06:53:05.006Z,981.48
2019-04-29T06:54:05.020Z,981.42
2019-04-29T06:55:04.922Z,981.56
2019-04-29T06:56:10.029Z,981.48
2019-04-29T06:57:05.427Z,981.51
2019-04-29T06:58:04.944Z,981.39
2019-04-29T06:59:11.904Z,981.31
2019-04-29T07:00:05.052Z,981.48
2019-04-29T07:01:04.954Z,981.45
2019-04-29T07:02:09.113Z,981.48
2019-04-29T07:03:05.315Z,981.64
2019-04-29T07:04:05.197Z,981.48
2019-04-29T07:05:05.224Z,981.50
2019-04-29T07:06:04.957Z,981.39
2019-04-29T07:07:05.025Z,981.42
2019-04-29T07:08:05.711Z,981.61
2019-04-29T07:09:04.976Z,981.44
2019-04-29T07:10:05.031Z,981.39
2019-04-29T07:11:05.154Z,981.41
2019-04-29T07:12:12.281Z,981.41
2019-04-29T07:13:05.187Z,981.36
2019-04-29T07:14:04.946Z,981.44
2019-04-29T07:15:12.153Z,981.33
2019-04-29T07:16:05.446Z,981.24
2019-04-29T07:17:07.175Z,981.38
2019-04-29T07:18:04.990Z,981.47
2019-04-29T07:19:05.454Z,981.44
2019-04-29T07:20:05.043Z,981.35
2019-04-29T07:21:11.812Z,981.32
2019-04-29T07:22:04.972Z,981.29
2019-04-29T07:23:06.061Z,981.26
2019-04-29T07:24:04.976Z,981.38
2019-04-29T07:25:04.958Z,981.32
2019-04-29T07:26:04.940Z,981.29
2019-04-29T07:27:05.385Z,981.32
2019-04-29T07:28:05.510Z,981.51
2019-04-29T07:29:04.980Z,981.31
2019-04-29T07:30:08.351Z,981.14
2019-04-29T07:31:05.522Z,981.28
2019-04-29T07:32:10.542Z,981.31
2019-04-29T07:33:06.014Z,981.28
2019-04-29T07:34:08.077Z,981.19
2019-04-29T07:35:09.750Z,981.05
2019-04-29T07:36:11.724Z,981.13
2019-04-29T07:37:05.488Z,981.18
2019-04-29T07:38:09.894Z,981.18
2019-04-29T07:39:05.025Z,981.21
2019-04-29T07:40:09.289Z,981.07
2019-04-29T07:41:05.111Z,980.98
2019-04-29T07:42:05.314Z,981.12
2019-04-29T07:43:09.575Z,981.12
2019-04-29T07:44:05.523Z,981.14
2019-04-29T07:45:05.016Z,981.03
2019-04-29T07:46:05.906Z,981.08
2019-04-29T07:47:04.990Z,981.00
2019-04-29T07:48:09.271Z,981.17
2019-04-29T07:49:06.182Z,981.05
2019-04-29T07:50:05.109Z,981.11
2019-04-29T07:51:06.320Z,981.08
2019-04-29T07:52:05.087Z,981.16
2019-04-29T07:53:05.445Z,980.93
2019-04-29T07:54:04.983Z,981.13
2019-04-29T07:55:05.089Z,981.01
2019-04-29T07:56:08.152Z,981.01
2019-04-29T07:57:05.455Z,981.07
2019-04-29T07:58:05.001Z,980.87
2019-04-29T07:59:05.189Z,980.98
2019-04-29T08:00:12.761Z,981.01
2019-04-29T08:01:05.137Z,981.01
2019-04-29T08:02:05.340Z,981.01
2019-04-29T08:03:09.839Z,980.84
2019-04-29T08:04:06.237Z,980.95
2019-04-29T08:05:05.230Z,980.86
2019-04-29T08:06:05.043Z,980.83
2019-04-29T08:07:05.084Z,980.80
2019-04-29T08:08:05.299Z,980.95
2019-04-29T08:09:09.849Z,980.80
2019-04-29T08:10:05.002Z,980.95
2019-04-29T08:11:05.302Z,980.86
2019-04-29T08:12:05.016Z,980.95
2019-04-29T08:13:05.084Z,980.97
2019-04-29T08:14:05.476Z,981.03
2019-04-29T08:15:08.709Z,980.86
2019-04-29T08:16:05.030Z,981.14
2019-04-29T08:17:05.091Z,980.97
2019-04-29T08:18:11.187Z,980.94
2019-04-29T08:19:05.687Z,981.03
2019-04-29T08:20:06.439Z,981.00
2019-04-29T08:21:05.533Z,981.03
2019-04-29T08:22:05.201Z,980.83
2019-04-29T08:23:05.570Z,980.80
2019-04-29T08:24:05.088Z,981.09
2019-04-29T08:25:05.137Z,981.01
2019-04-29T08:26:05.306Z,980.95
2019-04-29T08:27:05.460Z,981.01
2019-04-29T08:28:10.105Z,980.98
2019-04-29T08:29:05.762Z,981.01
2019-04-29T08:30:11.198Z,980.98
2019-04-29T08:31:06.370Z,980.92
2019-04-29T08:32:05.039Z,980.98
2019-04-29T08:33:11.881Z,980.93
2019-04-29T08:34:05.486Z,981.01
2019-04-29T08:35:05.901Z,980.99
2019-04-29T08:36:05.209Z,980.96
2019-04-29T08:37:06.514Z,980.99
2019-04-29T08:38:05.607Z,981.05
2019-04-29T08:39:09.110Z,980.94
2019-04-29T08:40:17.068Z,980.91
2019-04-29T08:41:05.464Z,980.97
2019-04-29T08:42:09.401Z,980.91
2019-04-29T08:43:10.257Z,980.97
2019-04-29T08:44:16.779Z,980.94
2019-04-29T08:45:05.060Z,980.97
2019-04-29T08:46:05.046Z,981.00
2019-04-29T08:47:05.460Z,981.00
2019-04-29T08:48:05.056Z,980.94
2019-04-29T08:49:07.701Z,981.11
2019-04-29T08:50:05.046Z,981.06
2019-04-29T08:51:05.244Z,981.00
2019-04-29T08:52:05.203Z,981.03
2019-04-29T08:53:05.064Z,980.97
2019-04-29T08:54:06.223Z,980.94
2019-04-29T08:55:05.966Z,980.94
2019-04-29T08:56:10.093Z,980.89
2019-04-29T08:57:05.330Z,980.94
2019-04-29T08:58:11.101Z,980.86
2019-04-29T08:59:06.218Z,981.00
2019-04-29T09:00:05.879Z,980.92
2019-04-29T09:01:05.241Z,980.89
2019-04-29T09:02:10.065Z,981.03
2019-04-29T09:03:05.265Z,981.00
2019-04-29T09:04:05.049Z,980.98
2019-04-29T09:05:11.223Z,980.92
2019-04-29T09:06:07.224Z,980.98
2019-04-29T09:07:14.460Z,981.00
2019-04-29T09:08:05.229Z,981.09
2019-04-29T09:09:14.687Z,980.81
2019-04-29T09:10:05.235Z,980.95
2019-04-29T09:11:12.746Z,980.98
2019-04-29T09:12:05.179Z,980.89
2019-04-29T09:13:05.071Z,980.89
2019-04-29T09:14:05.097Z,980.87
2019-04-29T09:15:05.265Z,980.84
2019-04-29T09:16:05.086Z,980.81
2019-04-29T09:17:20.842Z,980.81
2019-04-29T09:18:05.188Z,980.73
2019-04-29T09:19:05.129Z,980.84
2019-04-29T09:20:05.450Z,980.78
2019-04-29T09:21:05.095Z,980.73
2019-04-29T09:22:05.087Z,980.70
2019-04-29T09:23:08.374Z,980.73
2019-04-29T09:24:05.096Z,980.82
2019-04-29T09:25:05.380Z,980.76
2019-04-29T09:26:05.393Z,980.65
2019-04-29T09:27:11.137Z,980.73
2019-04-29T09:28:05.070Z,980.67
2019-04-29T09:29:05.903Z,980.73
2019-04-29T09:30:05.107Z,980.65
2019-04-29T09:31:05.366Z,980.62
2019-04-29T09:32:05.154Z,980.67
2019-04-29T09:33:12.960Z,980.59
2019-04-29T09:34:07.292Z,980.62
2019-04-29T09:35:05.097Z,980.56
2019-04-29T09:36:05.188Z,980.53
2019-04-29T09:37:07.562Z,980.48
2019-04-29T09:38:05.143Z,980.56
2019-04-29T09:39:05.379Z,980.51
2019-04-29T09:40:05.158Z,980.51
2019-04-29T09:41:05.337Z,980.51
2019-04-29T09:42:13.268Z,980.53
2019-04-29T09:43:16.198Z,980.36
2019-04-29T09:44:05.981Z,980.51
2019-04-29T09:45:05.114Z,980.51
2019-04-29T09:46:05.122Z,980.51
2019-04-29T09:47:10.200Z,980.56
2019-04-29T09:48:05.078Z,980.51
2019-04-29T09:49:05.393Z,980.59
2019-04-29T09:50:05.125Z,980.71
2019-04-29T09:51:18.304Z,980.59
2019-04-29T09:52:05.112Z,980.59
2019-04-29T09:53:05.180Z,980.68
2019-04-29T09:54:09.525Z,980.57
2019-04-29T09:55:06.232Z,980.45
2019-04-29T09:56:05.242Z,980.57
2019-04-29T09:57:05.154Z,980.57
2019-04-29T09:58:05.630Z,980.48
2019-04-29T09:59:05.126Z,980.40
2019-04-29T10:00:07.352Z,980.48
2019-04-29T10:01:05.120Z,980.71
2019-04-29T10:02:05.539Z,980.48
2019-04-29T10:03:05.123Z,980.60
2019-04-29T10:04:05.171Z,980.65
2019-04-29T10:05:06.966Z,980.57
2019-04-29T10:06:05.223Z,980.54
2019-04-29T10:07:05.141Z,980.57
2019-04-29T10:08:05.290Z,980.57
2019-04-29T10:09:05.359Z,980.74
2019-04-29T10:10:07.842Z,980.71
2019-04-29T10:11:05.157Z,980.71
2019-04-29T10:12:05.153Z,980.77
2019-04-29T10:13:05.119Z,980.66
2019-04-29T10:14:05.141Z,980.71
2019-04-29T10:15:05.961Z,980.80
2019-04-29T10:16:05.325Z,980.71
2019-04-29T10:17:05.355Z,980.77
2019-04-29T10:18:05.277Z,980.80
2019-04-29T10:19:06.971Z,980.60
2019-04-29T10:20:08.461Z,980.54
2019-04-29T10:21:05.120Z,980.60
2019-04-29T10:22:05.546Z,980.34
2019-04-29T10:23:05.168Z,980.13
2019-04-29T10:24:07.937Z,980.07
2019-04-29T10:25:05.325Z,980.26
2019-04-29T10:26:05.577Z,980.13
2019-04-29T10:27:07.643Z,980.23
2019-04-29T10:28:05.446Z,980.07
2019-04-29T10:29:05.150Z,980.01
2019-04-29T10:30:05.153Z,980.07
2019-04-29T10:31:05.160Z,980.07
2019-04-29T10:32:08.533Z,979.90
2019-04-29T10:33:05.526Z,980.07
2019-04-29T10:34:05.175Z,979.90
2019-04-29T10:35:10.622Z,980.10
2019-04-29T10:36:05.175Z,979.95
2019-04-29T10:37:05.324Z,979.95
2019-04-29T10:38:05.208Z,979.95
2019-04-29T10:39:05.146Z,979.95
2019-04-29T10:40:11.821Z,979.98
2019-04-29T10:41:05.159Z,979.85
2019-04-29T10:42:05.142Z,979.90
2019-04-29T10:43:05.572Z,979.98
2019-04-29T10:44:05.154Z,979.98
2019-04-29T10:45:05.518Z,979.98
2019-04-29T10:46:06.239Z,979.98
2019-04-29T10:47:05.164Z,979.87
2019-04-29T10:48:05.167Z,979.85
2019-04-29T10:49:05.656Z,979.76
2019-04-29T10:50:05.311Z,979.73
2019-04-29T10:51:05.197Z,979.70
2019-04-29T10:52:05.259Z,979.70
2019-04-29T10:53:05.149Z,979.84
2019-04-29T10:54:05.444Z,979.76
2019-04-29T10:55:06.005Z,979.76
2019-04-29T10:56:06.975Z,979.64
2019-04-29T10:57:05.565Z,979.70
2019-04-29T10:58:05.527Z,979.56
2019-04-29T10:59:11.133Z,979.61
2019-04-29T11:00:05.317Z,979.59
2019-04-29T11:01:05.339Z,979.58
2019-04-29T11:02:13.967Z,979.56
2019-04-29T11:03:06.018Z,979.64
2019-04-29T11:04:05.187Z,979.58
2019-04-29T11:05:11.782Z,979.58
2019-04-29T11:06:05.239Z,979.56
2019-04-29T11:07:18.636Z,979.44
2019-04-29T11:08:05.235Z,979.47
2019-04-29T11:09:05.182Z,979.47
2019-04-29T11:10:10.060Z,979.53
2019-04-29T11:11:05.171Z,979.50
2019-04-29T11:12:09.794Z,979.42
2019-04-29T11:13:05.387Z,979.33
2019-04-29T11:14:05.668Z,979.47
2019-04-29T11:15:05.212Z,979.28
2019-04-29T11:16:05.204Z,979.25
2019-04-29T11:17:05.313Z,979.28
2019-04-29T11:18:05.201Z,979.31
2019-04-29T11:19:06.044Z,979.31
2019-04-29T11:20:05.182Z,979.19
2019-04-29T11:21:05.193Z,979.22
2019-04-29T11:22:05.228Z,979.22
2019-04-29T11:23:14.935Z,979.25
2019-04-29T11:24:05.333Z,979.17
2019-04-29T11:25:05.216Z,979.28
2019-04-29T11:26:05.995Z,979.22
2019-04-29T11:27:12.723Z,979.05
2019-04-29T11:28:05.566Z,979.14
2019-04-29T11:29:09.605Z,978.97
2019-04-29T11:30:05.711Z,979.14
2019-04-29T11:31:05.291Z,979.03
2019-04-29T11:32:05.199Z,979.09
2019-04-29T11:33:06.610Z,979.06
2019-04-29T11:34:05.956Z,979.06
2019-04-29T11:35:05.278Z,978.92
2019-04-29T11:36:06.168Z,979.00
2019-04-29T11:37:05.527Z,979.00
2019-04-29T11:38:05.245Z,978.94
2019-04-29T11:39:13.577Z,978.94
2019-04-29T11:40:05.467Z,978.89
2019-04-29T11:41:05.193Z,978.92
2019-04-29T11:42:05.275Z,978.94
2019-04-29T11:43:05.242Z,978.86
2019-04-29T11:44:09.526Z,978.72
2019-04-29T11:45:05.352Z,979.09
2019-04-29T11:46:05.228Z,978.89
2019-04-29T11:47:05.291Z,978.92
2019-04-29T11:48:05.230Z,978.80
2019-04-29T11:49:05.252Z,978.86
2019-04-29T11:50:13.271Z,978.95
2019-04-29T11:51:05.202Z,978.83
2019-04-29T11:52:10.458Z,978.86
2019-04-29T11:53:05.211Z,978.86
2019-04-29T11:54:12.308Z,978.75
2019-04-29T11:55:05.388Z,978.78
2019-04-29T11:56:05.639Z,978.78
2019-04-29T11:57:07.752Z,978.67
2019-04-29T11:58:05.445Z,978.64
2019-04-29T11:59:05.331Z,978.61
2019-04-29T12:00:05.271Z,978.67
2019-04-29T12:01:10.336Z,978.64
2019-04-29T12:02:05.211Z,978.75
2019-04-29T12:03:05.320Z,978.81
2019-04-29T12:04:05.205Z,978.87
2019-04-29T12:05:10.191Z,979.07
2019-04-29T12:06:05.206Z,978.98
2019-04-29T12:07:05.329Z,978.98
2019-04-29T12:08:18.276Z,979.01
2019-04-29T12:09:07.041Z,979.13
2019-04-29T12:10:07.884Z,979.18
2019-04-29T12:11:07.667Z,979.04
2019-04-29T12:12:12.599Z,979.15
2019-04-29T12:13:05.266Z,979.24
2019-04-29T12:14:05.261Z,979.27
2019-04-29T12:15:08.979Z,979.13
2019-04-29T12:16:05.338Z,979.13
2019-04-29T12:17:05.226Z,979.38
2019-04-29T12:18:05.337Z,979.24
2019-04-29T12:19:05.229Z,979.32
2019-04-29T12:20:05.301Z,979.21
2019-04-29T12:21:05.244Z,979.30
2019-04-29T12:22:10.473Z,979.35
2019-04-29T12:23:05.288Z,979.41
2019-04-29T12:24:05.338Z,979.32
2019-04-29T12:25:05.300Z,979.35
2019-04-29T12:26:05.392Z,979.24
2019-04-29T12:27:05.455Z,979.30
2019-04-29T12:28:19.700Z,979.30